createdAt,value
2023-04-29T00:01:03.644Z,98.38
2023-04-29T00:03:32.661Z,103.32
2023-04-29T00:06:00.295Z,102.47
2023-04-29T00:08:27.344Z,109.90
2023-04-29T00:10:54.106Z,110.40
2023-04-29T00:13:21.312Z,115.25
2023-04-29T00:15:50.348Z,115.72
2023-04-29T00:18:16.924Z,112.03
2023-04-29T00:20:43.896Z,113.32
2023-04-29T00:23:11.191Z,112.40
2023-04-29T00:25:38.865Z,109.80
2023-04-29T00:28:06.205Z,109.75
2023-04-29T00:30:34.586Z,111.15
2023-04-29T00:33:01.325Z,113.78
2023-04-29T00:35:27.931Z,114.78
2023-04-29T00:37:54.551Z,112.15
2023-04-29T00:40:21.304Z,107.50
2023-04-29T00:42:47.900Z,102.95
2023-04-29T00:45:14.506Z,103.78
2023-04-29T00:47:42.014Z,103.28
2023-04-29T00:50:09.232Z,99.35
2023-04-29T00:52:37.691Z,96.60
2023-04-29T00:55:06.429Z,96.25
2023-04-29T00:57:34.636Z,92.63
2023-04-29T01:00:01.477Z,97.65
2023-04-29T01:02:28.925Z,99.72
2023-04-29T01:04:55.736Z,99.20
2023-04-29T01:07:48.794Z,103.68
2023-04-29T01:10:22.851Z,94.95
2023-04-29T01:13:06.957Z,95.80
2023-04-29T01:15:42.163Z,100.00
2023-04-29T01:18:26.396Z,102.72
2023-04-29T01:20:53.785Z,98.82
2023-04-29T01:23:20.506Z,102.82
2023-04-29T01:25:48.966Z,103.32
2023-04-29T01:28:54.691Z,103.75
2023-04-29T01:34:16.914Z,77.45
2023-04-29T01:37:29.423Z,87.85
2023-04-29T01:40:10.256Z,87.32
2023-04-29T01:42:43.077Z,90.10
2023-04-29T01:45:11.390Z,94.10
2023-04-29T01:47:39.293Z,94.75
2023-04-29T01:50:06.706Z,92.68
2023-04-29T01:52:33.266Z,84.03
2023-04-29T01:54:59.803Z,78.18
2023-04-29T01:57:26.434Z,71.95
2023-04-29T01:59:53.197Z,69.68
2023-04-29T02:02:23.555Z,65.85
2023-04-29T02:04:50.765Z,63.50
2023-04-29T02:07:17.662Z,65.35
2023-04-29T02:09:44.261Z,70.38
2023-04-29T02:12:10.850Z,71.68
2023-04-29T02:14:37.893Z,64.70
2023-04-29T02:17:04.719Z,59.58
2023-04-29T02:19:31.329Z,56.28
2023-04-29T02:21:57.905Z,55.35
2023-04-29T02:24:24.467Z,55.42
2023-04-29T02:26:51.099Z,48.92
2023-04-29T02:29:17.698Z,45.58
2023-04-29T02:31:44.398Z,44.13
2023-04-29T02:34:10.989Z,43.67
2023-04-29T02:36:37.621Z,45.25
2023-04-29T02:39:04.485Z,45.08
2023-04-29T02:41:31.064Z,44.45
2023-04-29T02:43:58.288Z,44.50
2023-04-29T02:46:24.938Z,44.20
2023-04-29T02:48:51.530Z,46.00
2023-04-29T02:51:18.111Z,45.17
2023-04-29T02:53:44.637Z,45.70
2023-04-29T02:56:11.653Z,47.75
2023-04-29T02:58:38.225Z,49.13
2023-04-29T03:01:04.981Z,50.45
2023-04-29T03:03:32.047Z,52.75
2023-04-29T03:05:58.789Z,53.13
2023-04-29T03:08:25.312Z,51.45
2023-04-29T03:10:51.930Z,53.35
2023-04-29T03:13:18.536Z,59.83
2023-04-29T03:15:45.240Z,63.30
2023-04-29T03:18:11.897Z,56.72
2023-04-29T03:20:38.486Z,55.05
2023-04-29T03:23:05.356Z,60.22
2023-04-29T03:25:32.022Z,64.80
2023-04-29T03:27:58.593Z,68.45
2023-04-29T03:30:25.275Z,56.88
2023-04-29T03:32:51.840Z,62.35
2023-04-29T03:35:18.556Z,56.25
2023-04-29T03:37:45.174Z,64.70
2023-04-29T03:40:12.730Z,60.70
2023-04-29T03:42:39.401Z,68.70
2023-04-29T03:45:06.987Z,63.33
2023-04-29T03:47:33.649Z,69.53
2023-04-29T03:50:00.216Z,66.25
2023-04-29T03:52:27.245Z,79.53
2023-04-29T03:54:53.829Z,67.70
2023-04-29T03:57:20.410Z,79.72
2023-04-29T03:59:50.552Z,69.65
2023-04-29T04:02:17.578Z,53.13
2023-04-29T04:04:44.567Z,63.65
2023-04-29T04:07:11.704Z,61.53
2023-04-29T04:09:38.632Z,76.90
2023-04-29T04:12:06.400Z,83.47
2023-04-29T04:14:33.031Z,79.72
2023-04-29T04:16:59.573Z,87.20
2023-04-29T04:19:27.117Z,88.03
2023-04-29T04:21:53.756Z,78.32
2023-04-29T04:24:20.420Z,82.57
2023-04-29T04:26:46.973Z,84.40
2023-04-29T04:29:13.545Z,82.88
2023-04-29T04:31:40.446Z,84.28
2023-04-29T04:34:07.026Z,88.05
2023-04-29T04:36:33.657Z,89.68
2023-04-29T04:39:00.298Z,91.15
2023-04-29T04:41:27.056Z,91.72
2023-04-29T04:43:53.665Z,83.88
2023-04-29T04:46:20.271Z,95.03
2023-04-29T04:48:46.952Z,84.65
2023-04-29T04:51:14.037Z,73.65
2023-04-29T04:53:40.968Z,72.25
2023-04-29T04:56:08.382Z,85.97
2023-04-29T04:58:34.984Z,76.00
2023-04-29T05:01:01.613Z,82.20
2023-04-29T05:03:28.624Z,81.90
2023-04-29T05:05:56.741Z,98.00
2023-04-29T05:08:23.439Z,101.88
2023-04-29T05:10:50.335Z,97.47
2023-04-29T05:13:17.089Z,97.85
2023-04-29T05:15:44.636Z,96.60
2023-04-29T05:18:11.824Z,89.13
2023-04-29T05:20:38.465Z,73.35
2023-04-29T05:23:05.096Z,74.10
2023-04-29T05:25:31.746Z,68.40
2023-04-29T05:27:58.313Z,68.05
2023-04-29T05:30:24.890Z,67.07
2023-04-29T05:32:51.711Z,71.97
2023-04-29T05:35:18.482Z,81.40
2023-04-29T05:37:45.056Z,82.15
2023-04-29T05:40:11.937Z,73.32
2023-04-29T05:42:38.538Z,71.25
2023-04-29T05:45:05.763Z,71.82
2023-04-29T05:47:32.394Z,67.28
2023-04-29T05:49:59.248Z,70.22
2023-04-29T05:52:25.917Z,71.63
2023-04-29T05:54:52.539Z,75.78
2023-04-29T05:57:19.133Z,65.28
2023-04-29T05:59:45.707Z,62.45
2023-04-29T06:02:12.525Z,65.25
2023-04-29T06:04:41.589Z,62.70
2023-04-29T06:07:09.339Z,63.10
2023-04-29T06:09:36.921Z,63.95
2023-04-29T06:12:04.467Z,59.25
2023-04-29T06:14:31.024Z,43.88
2023-04-29T06:16:57.872Z,53.85
2023-04-29T06:19:25.362Z,38.45
2023-04-29T06:21:52.063Z,31.50
2023-04-29T06:24:18.666Z,31.58
2023-04-29T06:26:45.610Z,33.53
2023-04-29T06:29:12.463Z,34.05
2023-04-29T06:31:39.101Z,34.92
2023-04-29T06:34:05.995Z,35.22
2023-04-29T06:36:33.059Z,33.42
2023-04-29T06:38:59.694Z,35.72
2023-04-29T06:41:27.329Z,35.67
2023-04-29T06:43:54.121Z,34.58
2023-04-29T06:46:20.723Z,33.13
2023-04-29T06:48:47.598Z,36.00
2023-04-29T06:51:14.146Z,35.88
2023-04-29T06:53:40.768Z,35.92
2023-04-29T06:56:07.845Z,36.10
2023-04-29T06:58:34.487Z,36.28
2023-04-29T07:01:01.401Z,35.80
2023-04-29T07:03:28.140Z,37.33
2023-04-29T07:05:54.793Z,35.35
2023-04-29T07:08:21.340Z,34.88
2023-04-29T07:10:58.070Z,32.42
2023-04-29T07:13:25.421Z,31.70
2023-04-29T07:15:52.203Z,32.58
2023-04-29T07:18:18.863Z,33.10
2023-04-29T07:20:46.128Z,31.55
2023-04-29T07:23:12.894Z,31.02
2023-04-29T07:25:39.481Z,30.13
2023-04-29T07:28:06.039Z,32.13
2023-04-29T07:30:32.648Z,31.80
2023-04-29T07:32:59.188Z,31.63
2023-04-29T07:35:25.855Z,30.27
2023-04-29T07:37:52.480Z,32.35
2023-04-29T07:40:19.093Z,33.42
2023-04-29T07:42:45.810Z,31.23
2023-04-29T07:45:13.911Z,31.15
2023-04-29T07:47:40.636Z,30.75
2023-04-29T07:50:07.689Z,28.95
2023-04-29T07:52:34.857Z,31.00
2023-04-29T07:55:01.990Z,29.95
2023-04-29T07:57:28.528Z,28.38
2023-04-29T07:59:55.497Z,27.98
2023-04-29T08:02:22.211Z,27.08
2023-04-29T08:04:51.374Z,27.10
2023-04-29T08:07:18.531Z,23.92
2023-04-29T08:09:45.239Z,22.23
2023-04-29T08:12:11.852Z,21.50
2023-04-29T08:14:38.528Z,21.65
2023-04-29T08:17:05.050Z,21.02
2023-04-29T08:19:32.945Z,19.92
2023-04-29T08:22:01.126Z,20.30
2023-04-29T08:24:29.161Z,20.65
2023-04-29T08:26:56.772Z,20.00
2023-04-29T08:29:23.413Z,18.27
2023-04-29T08:31:50.750Z,18.20
2023-04-29T08:34:17.410Z,20.48
2023-04-29T08:36:43.963Z,19.83
2023-04-29T08:39:10.538Z,19.50
2023-04-29T08:41:37.562Z,20.15
2023-04-29T08:44:04.227Z,19.65
2023-04-29T08:46:31.861Z,19.75
2023-04-29T08:48:59.593Z,18.90
2023-04-29T08:51:26.664Z,18.02
2023-04-29T08:53:53.305Z,18.65
2023-04-29T08:56:23.214Z,17.05
2023-04-29T08:58:58.949Z,19.63
2023-04-29T09:01:28.798Z,16.77
2023-04-29T09:04:26.383Z,16.50
2023-04-29T09:06:56.281Z,17.27
2023-04-29T09:09:25.183Z,18.02
2023-04-29T09:11:52.176Z,17.80
2023-04-29T09:14:20.538Z,18.67
2023-04-29T09:16:47.735Z,17.88
2023-04-29T09:19:35.671Z,16.98
2023-04-29T09:22:03.972Z,18.80
2023-04-29T09:24:31.790Z,18.13
2023-04-29T09:26:59.869Z,17.70
2023-04-29T09:29:26.804Z,18.42
2023-04-29T09:31:53.757Z,19.40
2023-04-29T09:34:36.037Z,20.35
2023-04-29T09:37:02.622Z,20.35
2023-04-29T09:39:38.921Z,18.60
2023-04-29T09:42:06.271Z,18.92
2023-04-29T09:44:37.993Z,18.52
2023-04-29T09:47:05.593Z,19.02
2023-04-29T09:49:38.830Z,18.05
2023-04-29T09:52:08.129Z,17.25
2023-04-29T09:54:39.220Z,17.73
2023-04-29T09:57:08.132Z,17.20
2023-04-29T09:59:36.649Z,17.65
2023-04-29T10:02:10.357Z,17.20
2023-04-29T10:04:40.529Z,17.13
2023-04-29T10:07:08.624Z,18.10
2023-04-29T10:09:39.005Z,16.52
2023-04-29T10:12:07.742Z,15.85
2023-04-29T10:14:43.793Z,16.27
2023-04-29T10:17:42.369Z,16.50
2023-04-29T10:20:12.586Z,16.13
2023-04-29T10:22:48.975Z,18.00
2023-04-29T10:25:18.423Z,15.85
2023-04-29T10:27:46.618Z,15.25
2023-04-29T10:30:14.778Z,15.20
2023-04-29T10:32:50.539Z,16.10
2023-04-29T10:35:20.267Z,14.65
2023-04-29T10:37:48.999Z,15.20
2023-04-29T10:40:29.134Z,15.50
2023-04-29T10:42:55.857Z,15.23
2023-04-29T10:45:31.739Z,14.73
2023-04-29T10:48:08.717Z,14.32
2023-04-29T10:50:47.470Z,14.63
2023-04-29T10:53:22.297Z,14.05
2023-04-29T10:55:54.119Z,13.80
2023-04-29T10:58:43.888Z,12.40
2023-04-29T11:01:12.735Z,12.63
2023-04-29T11:03:50.711Z,13.05
2023-04-29T11:06:17.591Z,12.82
2023-04-29T11:08:44.944Z,12.18
2023-04-29T11:11:14.027Z,12.35
2023-04-29T11:13:40.950Z,11.65
2023-04-29T11:16:29.778Z,12.23
2023-04-29T11:19:24.176Z,12.00
2023-04-29T11:22:04.669Z,10.40
2023-04-29T11:24:31.448Z,10.77
2023-04-29T11:27:04.328Z,10.85
2023-04-29T11:29:33.590Z,11.65
2023-04-29T11:32:01.962Z,11.05
2023-04-29T11:34:28.621Z,12.23
2023-04-29T11:36:55.269Z,10.77
2023-04-29T11:39:21.839Z,11.45
2023-04-29T11:41:52.440Z,10.70
2023-04-29T11:44:25.068Z,10.70
2023-04-29T11:46:51.622Z,11.18
2023-04-29T11:49:18.560Z,11.55
2023-04-29T11:51:45.164Z,10.43
2023-04-29T11:54:12.095Z,10.70
2023-04-29T11:56:38.795Z,11.68
2023-04-29T11:59:08.113Z,11.70
2023-04-29T12:01:36.091Z,12.30
2023-04-29T12:04:03.406Z,11.90
2023-04-29T12:06:31.157Z,11.25
2023-04-29T12:09:01.220Z,11.43
2023-04-29T12:11:28.953Z,11.52
2023-04-29T12:13:56.731Z,11.50
2023-04-29T12:16:29.301Z,12.65
2023-04-29T12:18:56.383Z,11.50
2023-04-29T12:21:22.972Z,12.43
2023-04-29T12:23:51.510Z,11.50
2023-04-29T12:26:19.326Z,12.00
2023-04-29T12:28:46.291Z,10.90
2023-04-29T12:31:15.599Z,11.77
2023-04-29T12:33:45.494Z,11.35
2023-04-29T12:36:19.190Z,12.63
2023-04-29T12:38:47.710Z,11.77
2023-04-29T12:41:17.363Z,11.05
2023-04-29T12:43:44.475Z,10.38
2023-04-29T12:46:14.800Z,10.98
2023-04-29T12:48:43.523Z,10.38
2023-04-29T12:51:11.642Z,11.40
2023-04-29T12:53:39.214Z,10.45
2023-04-29T12:56:06.764Z,10.75
2023-04-29T12:58:34.905Z,10.60
2023-04-29T13:01:01.773Z,11.13
2023-04-29T13:03:28.625Z,11.10
2023-04-29T13:05:55.963Z,11.20
2023-04-29T13:08:23.123Z,10.48
2023-04-29T13:10:49.931Z,11.10
2023-04-29T13:13:16.742Z,11.65
2023-04-29T13:15:43.396Z,11.52
2023-04-29T13:18:09.951Z,11.10
2023-04-29T13:20:41.539Z,11.93
2023-04-29T13:23:09.342Z,10.73
2023-04-29T13:25:36.082Z,10.80
2023-04-29T13:28:02.791Z,10.50
2023-04-29T13:30:29.413Z,10.80
2023-04-29T13:32:59.935Z,10.82
2023-04-29T13:35:29.812Z,11.00
2023-04-29T13:37:57.504Z,11.20
2023-04-29T13:40:27.793Z,11.52
2023-04-29T13:43:02.231Z,11.77
2023-04-29T13:45:39.046Z,11.30
2023-04-29T13:48:16.831Z,11.23
2023-04-29T13:53:52.419Z,11.15
2023-04-29T13:59:19.620Z,10.23
2023-04-29T14:02:13.954Z,10.05
2023-04-29T14:04:11.925Z,10.10
2023-04-29T14:06:38.962Z,10.23
2023-04-29T14:09:06.085Z,9.90
2023-04-29T14:11:36.588Z,9.95
2023-04-29T14:14:04.043Z,10.15
2023-04-29T14:16:30.763Z,10.63
2023-04-29T14:18:57.643Z,10.60
2023-04-29T14:21:24.347Z,10.27
2023-04-29T14:23:51.013Z,10.80
2023-04-29T14:26:27.999Z,10.43
2023-04-29T14:28:59.469Z,10.20
2023-04-29T14:31:30.258Z,10.50
2023-04-29T14:33:58.326Z,10.52
2023-04-29T14:36:26.631Z,10.60
2023-04-29T14:38:53.221Z,11.05
2023-04-29T14:41:21.812Z,11.10
2023-04-29T14:43:48.500Z,11.60
2023-04-29T14:46:15.249Z,11.65
2023-04-29T14:48:41.960Z,12.73
2023-04-29T14:51:08.797Z,12.38
2023-04-29T14:53:37.835Z,12.55
2023-04-29T14:56:04.770Z,12.45
2023-04-29T14:58:31.445Z,12.43
2023-04-29T15:00:58.101Z,11.30
2023-04-29T15:03:24.977Z,12.75
2023-04-29T15:05:51.969Z,12.00
2023-04-29T15:08:19.526Z,11.77
2023-04-29T15:10:50.179Z,11.20
2023-04-29T15:13:17.050Z,10.85
2023-04-29T15:15:43.739Z,12.05
2023-04-29T15:18:10.371Z,12.10
2023-04-29T15:20:37.713Z,10.82
2023-04-29T15:23:05.733Z,11.00
2023-04-29T15:25:34.608Z,11.15
2023-04-29T15:28:03.884Z,11.45
2023-04-29T15:30:30.603Z,11.20
2023-04-29T15:32:57.265Z,11.50
2023-04-29T15:35:23.857Z,11.45
2023-04-29T15:37:50.612Z,12.52
2023-04-29T15:40:17.700Z,11.45
2023-04-29T15:42:44.572Z,11.70
2023-04-29T15:45:11.681Z,11.43
2023-04-29T15:47:38.695Z,11.32
2023-04-29T15:50:05.955Z,11.77
2023-04-29T15:52:32.590Z,11.98
2023-04-29T15:54:59.296Z,11.38
2023-04-29T15:57:26.191Z,12.70
2023-04-29T15:59:53.096Z,11.88
2023-04-29T16:02:21.133Z,11.68
2023-04-29T16:04:48.028Z,12.50
2023-04-29T16:07:14.774Z,11.45
2023-04-29T16:09:41.570Z,12.25
2023-04-29T16:12:08.603Z,11.27
2023-04-29T16:14:35.201Z,12.43
2023-04-29T16:17:02.148Z,11.35
2023-04-29T16:19:29.041Z,11.85
2023-04-29T16:21:55.891Z,11.48
2023-04-29T16:24:22.821Z,11.45
2023-04-29T16:26:50.783Z,11.40
2023-04-29T16:29:18.358Z,11.95
2023-04-29T16:31:45.366Z,11.60
2023-04-29T16:34:12.435Z,11.75
2023-04-29T16:36:39.430Z,11.52
2023-04-29T16:39:06.290Z,12.02
2023-04-29T16:41:33.148Z,12.20
2023-04-29T16:43:59.916Z,12.20
2023-04-29T16:46:26.660Z,12.63
2023-04-29T16:48:56.762Z,12.25
2023-04-29T16:51:29.186Z,12.15
2023-04-29T16:53:55.805Z,11.75
2023-04-29T16:56:22.677Z,12.02
2023-04-29T16:58:49.355Z,12.10
2023-04-29T17:01:16.448Z,12.60
2023-04-29T17:03:43.140Z,12.48
2023-04-29T17:06:10.006Z,12.30
2023-04-29T17:08:36.863Z,12.25
2023-04-29T17:11:04.922Z,11.80
2023-04-29T17:13:31.913Z,11.82
2023-04-29T17:15:58.570Z,11.05
2023-04-29T17:18:25.170Z,11.30
2023-04-29T17:20:51.786Z,12.02
2023-04-29T17:23:18.396Z,11.13
2023-04-29T17:25:45.225Z,11.82
2023-04-29T17:28:11.899Z,11.40
2023-04-29T17:30:38.602Z,11.10
2023-04-29T17:33:07.859Z,12.35
2023-04-29T17:35:35.342Z,12.82
2023-04-29T17:38:02.063Z,11.73
2023-04-29T17:40:28.732Z,11.23
2023-04-29T17:42:55.432Z,11.55
2023-04-29T17:45:22.023Z,11.88
2023-04-29T17:47:48.685Z,12.35
2023-04-29T17:50:15.398Z,13.38
2023-04-29T17:52:42.606Z,12.27
2023-04-29T17:55:10.438Z,12.15
2023-04-29T17:57:38.233Z,13.13
2023-04-29T18:00:08.549Z,13.48
2023-04-29T18:02:35.300Z,13.52
2023-04-29T18:05:03.487Z,12.48
2023-04-29T18:07:32.858Z,13.27
2023-04-29T18:09:59.487Z,14.02
2023-04-29T18:12:26.215Z,13.73
2023-04-29T18:14:52.882Z,12.68
2023-04-29T18:17:19.873Z,12.00
2023-04-29T18:19:48.661Z,13.63
2023-04-29T18:22:16.053Z,13.35
2023-04-29T18:24:42.700Z,12.52
2023-04-29T18:27:09.293Z,12.57
2023-04-29T18:29:35.906Z,11.65
2023-04-29T18:32:03.448Z,12.00
2023-04-29T18:34:31.099Z,12.45
2023-04-29T18:36:57.637Z,12.48
2023-04-29T18:39:24.276Z,12.50
2023-04-29T18:41:51.036Z,12.48
2023-04-29T18:44:17.693Z,13.05
2023-04-29T18:46:44.365Z,11.77
2023-04-29T18:49:16.072Z,12.50
2023-04-29T18:51:46.761Z,12.13
2023-04-29T18:54:18.422Z,12.15
2023-04-29T18:56:49.430Z,12.30
2023-04-29T18:59:19.009Z,12.70
2023-04-29T19:01:47.026Z,11.55
2023-04-29T19:04:14.239Z,12.55
2023-04-29T19:06:41.924Z,12.82
2023-04-29T19:09:08.819Z,12.25
2023-04-29T19:11:35.426Z,12.18
2023-04-29T19:14:03.978Z,11.90
2023-04-29T19:16:30.576Z,12.32
2023-04-29T19:18:58.452Z,11.93
2023-04-29T19:21:25.069Z,12.50
2023-04-29T19:23:53.184Z,12.50
2023-04-29T19:26:19.726Z,13.43
2023-04-29T19:28:46.415Z,12.45
2023-04-29T19:31:13.065Z,13.73
2023-04-29T19:33:39.669Z,13.20
2023-04-29T19:36:06.218Z,12.63
2023-04-29T19:38:32.872Z,12.88
2023-04-29T19:40:59.993Z,14.27
2023-04-29T19:43:26.615Z,13.43
2023-04-29T19:45:53.209Z,14.88
2023-04-29T19:48:19.939Z,16.30
2023-04-29T19:50:46.485Z,16.23
2023-04-29T19:53:13.236Z,16.67
2023-04-29T19:55:40.224Z,18.45
2023-04-29T19:58:07.218Z,18.20
2023-04-29T20:00:34.226Z,18.88
2023-04-29T20:03:00.896Z,18.98
2023-04-29T20:05:28.418Z,19.77
2023-04-29T20:07:56.014Z,21.48
2023-04-29T20:10:22.775Z,20.42
2023-04-29T20:12:49.519Z,21.08
2023-04-29T20:15:16.478Z,19.75
2023-04-29T20:17:43.197Z,22.17
2023-04-29T20:20:10.575Z,19.95
2023-04-29T20:22:37.317Z,19.45
2023-04-29T20:25:04.444Z,19.50
2023-04-29T20:27:31.269Z,21.30
2023-04-29T20:29:57.864Z,23.08
2023-04-29T20:32:24.713Z,21.80
2023-04-29T20:34:51.737Z,21.45
2023-04-29T20:37:19.862Z,21.20
2023-04-29T20:39:47.106Z,22.17
2023-04-29T20:42:13.739Z,22.60
2023-04-29T20:44:40.845Z,23.73
2023-04-29T20:47:07.407Z,23.10
2023-04-29T20:49:33.961Z,27.63
2023-04-29T20:52:01.009Z,31.23
2023-04-29T20:54:27.617Z,34.78
2023-04-29T20:56:54.147Z,39.08
2023-04-29T20:59:20.752Z,43.38
2023-04-29T21:01:47.511Z,51.17
2023-04-29T21:04:14.361Z,54.17
2023-04-29T21:06:41.482Z,62.50
2023-04-29T21:09:09.026Z,69.57
2023-04-29T21:11:35.660Z,76.63
2023-04-29T21:14:02.888Z,85.10
2023-04-29T21:16:29.468Z,108.88
2023-04-29T21:18:56.419Z,136.85
2023-04-29T21:21:23.292Z,163.55
2023-04-29T21:23:49.882Z,185.82
2023-04-29T21:26:16.439Z,201.48
2023-04-29T21:28:43.022Z,209.23
2023-04-29T21:31:15.304Z,224.13
2023-04-29T21:33:46.246Z,209.80
2023-04-29T21:36:13.731Z,213.07
2023-04-29T21:38:42.673Z,228.82
2023-04-29T21:41:26.546Z,247.35
2023-04-29T21:43:55.094Z,252.80
2023-04-29T21:46:21.868Z,261.85
2023-04-29T21:48:49.071Z,262.65
2023-04-29T21:51:15.708Z,254.45
2023-04-29T21:53:43.060Z,259.20
2023-04-29T21:56:09.674Z,256.63
2023-04-29T21:58:36.398Z,262.52
2023-04-29T22:01:05.611Z,254.07
2023-04-29T22:03:32.282Z,242.63
2023-04-29T22:05:59.078Z,238.95
2023-04-29T22:08:25.735Z,233.55
2023-04-29T22:10:52.343Z,206.02
2023-04-29T22:13:18.975Z,200.75
2023-04-29T22:15:45.553Z,195.15
2023-04-29T22:18:12.257Z,179.10
2023-04-29T22:20:38.897Z,196.73
2023-04-29T22:23:05.732Z,179.65
2023-04-29T22:25:32.469Z,166.07
2023-04-29T22:27:59.191Z,172.98
2023-04-29T22:30:25.725Z,161.48
2023-04-29T22:32:52.357Z,146.73
2023-04-29T22:35:18.934Z,143.27
2023-04-29T22:37:45.614Z,128.35
2023-04-29T22:40:12.965Z,105.72
2023-04-29T22:42:41.910Z,103.40
2023-04-29T22:45:10.231Z,98.78
2023-04-29T22:47:36.920Z,96.90
2023-04-29T22:50:03.751Z,89.40
2023-04-29T22:52:32.743Z,88.78
2023-04-29T22:54:59.850Z,74.65
2023-04-29T22:57:26.396Z,77.80
2023-04-29T22:59:56.950Z,67.63
2023-04-29T23:02:29.012Z,58.17
2023-04-29T23:04:56.649Z,56.10
2023-04-29T23:07:24.070Z,56.83
2023-04-29T23:09:51.446Z,63.60
2023-04-29T23:12:18.669Z,60.03
2023-04-29T23:14:45.443Z,52.50
2023-04-29T23:17:12.277Z,51.90
2023-04-29T23:19:38.936Z,49.90
2023-04-29T23:22:08.369Z,47.78
2023-04-29T23:24:35.590Z,42.45
2023-04-29T23:27:05.123Z,43.83
2023-04-29T23:29:34.037Z,33.85
2023-04-29T23:32:01.272Z,33.58
2023-04-29T23:34:27.936Z,38.13
2023-04-29T23:36:54.537Z,32.33
2023-04-29T23:39:21.125Z,30.17
2023-04-29T23:41:47.711Z,28.88
2023-04-29T23:44:14.266Z,28.23
2023-04-29T23:46:40.927Z,28.98
2023-04-29T23:49:07.553Z,31.67
2023-04-29T23:51:34.132Z,29.52
2023-04-29T23:54:00.889Z,26.75
2023-04-29T23:56:29.185Z,25.70
2023-04-29T23:58:55.843Z,25.20
